PWSweather.com
Personal Weather Stations
Station Observations
KKYCRABO2
Cedar Creek Lake 840 Ky. Hwy. 39 N, Crab Orchard, KY 40419

Cedar Creek Lake 840 Ky. Hwy. 39 NCrab Orchard, KY 40419

Lat: 37.4736234544238, Lon: -84.5120286941528

Elevation: 952

Station Type: TYCON Power TP1080WC Pro

http://kbweather.net/

High Low Average
Temperature 68.2°F20.1°F 30.2°F-1.0°F 49.0°F9.4°F
Dew Point 56.0°F13.3°F 20.7°F-6.3°F 34.6°F1.4°F
Winds 4.5 mph SW7.2 mph SW Calm Calm 1.7 mph 2.7 mph
Wind Gusts 10.7 mph17.2 mph 3.1 mph5.0 mph 6.7 mph10.8 mph
Humidity 70% 48% 58%
Pressure 30.41 in1029.80 in 30.12 in1020.00 in -
Precipitation 0.00 in0.00 in - -
Hour Temp Dew Point Humidity Winds Wind Gusts Pressure Precip Precip Rate Daily Precip Total
12:00 AM 30.2°F-1.0°C 20.9°F-6.2°C 68% Calm Calm 3.1 mph5.0 kmh 30.41 in1029.8 mb 0.00 in0.0 mm 0.00 in/hr0.0 mm/hr 0.00 in0.0 mm
12:05 AM 30.2°F-1.0°C 20.9°F-6.2°C 68% Calm Calm 3.1 mph5.0 kmh 30.41 in1029.8 mb 0.00 in0.0 mm 0.00 in/hr0.0 mm/hr 0.00 in0.0 mm
12:10 AM 31.6°F-0.2°C 20.9°F-6.2°C 64% 2.2 mph SSE3.5 kmh SSE 6.0 mph9.7 kmh 30.41 in1029.8 mb 0.00 in0.0 mm 0.00 in/hr0.0 mm/hr 0.00 in0.0 mm
12:15 AM 31.6°F-0.2°C 20.9°F-6.2°C 64% 0.7 mph S1.1 kmh S 6.0 mph9.7 kmh 30.41 in1029.8 mb 0.00 in0.0 mm 0.00 in/hr0.0 mm/hr 0.00 in0.0 mm
12:20 AM 31.8°F-0.1°C 21.1°F-6.1°C 64% 3.1 mph S5.0 kmh S 5.4 mph8.7 kmh 30.41 in1029.8 mb 0.00 in0.0 mm 0.00 in/hr0.0 mm/hr 0.00 in0.0 mm
12:25 AM 31.8°F-0.1°C 20.7°F-6.3°C 63% 2.2 mph S3.5 kmh S 5.4 mph8.7 kmh 30.40 in1029.5 mb 0.00 in0.0 mm 0.00 in/hr0.0 mm/hr 0.00 in0.0 mm
12:30 AM 31.8°F-0.1°C 20.7°F-6.3°C 63% 1.6 mph S2.6 kmh S 5.4 mph8.7 kmh 30.40 in1029.5 mb 0.00 in0.0 mm 0.00 in/hr0.0 mm/hr 0.00 in0.0 mm
12:35 AM 32.0°F0.0°C 21.2°F-6.0°C 64% 1.6 mph SSE2.6 kmh SSE 4.5 mph7.2 kmh 30.40 in1029.5 mb 0.00 in0.0 mm 0.00 in/hr0.0 mm/hr 0.00 in0.0 mm
12:40 AM 32.0°F0.0°C 21.6°F-5.8°C 65% 1.6 mph SE2.6 kmh SE 3.8 mph6.1 kmh 30.40 in1029.5 mb 0.00 in0.0 mm 0.00 in/hr0.0 mm/hr 0.00 in0.0 mm
12:45 AM 32.4°F0.2°C 21.9°F-5.6°C 65% 0.7 mph SSE1.1 kmh SSE 4.5 mph7.2 kmh 30.40 in1029.5 mb 0.00 in0.0 mm 0.00 in/hr0.0 mm/hr 0.00 in0.0 mm
12:50 AM 32.7°F0.4°C 22.3°F-5.4°C 65% 3.1 mph S5.0 kmh S 6.9 mph11.1 kmh 30.39 in1029.1 mb 0.00 in0.0 mm 0.00 in/hr0.0 mm/hr 0.00 in0.0 mm
12:55 AM 33.1°F0.6°C 22.6°F-5.2°C 65% 2.2 mph S3.5 kmh S 6.9 mph11.1 kmh 30.39 in1029.1 mb 0.00 in0.0 mm 0.00 in/hr0.0 mm/hr 0.00 in0.0 mm
01:00 AM 33.4°F0.8°C 22.6°F-5.2°C 64% 0.7 mph S1.1 kmh S 6.9 mph11.1 kmh 30.39 in1029.1 mb 0.00 in0.0 mm 0.00 in/hr0.0 mm/hr 0.00 in0.0 mm
01:05 AM 33.4°F0.8°C 22.6°F-5.2°C 64% 0.7 mph S1.1 kmh S 4.5 mph7.2 kmh 30.39 in1029.1 mb 0.00 in0.0 mm 0.00 in/hr0.0 mm/hr 0.00 in0.0 mm
01:10 AM 33.6°F0.9°C 22.4°F-5.3°C 63% 0.7 mph S1.1 kmh S 4.5 mph7.2 kmh 30.39 in1029.1 mb 0.00 in0.0 mm 0.00 in/hr0.0 mm/hr 0.00 in0.0 mm
01:15 AM 33.8°F1.0°C 22.6°F-5.2°C 63% Calm Calm 4.5 mph7.2 kmh 30.39 in1029.1 mb 0.00 in0.0 mm 0.00 in/hr0.0 mm/hr 0.00 in0.0 mm
01:20 AM 34.2°F1.2°C 22.9°F-5.1°C 63% Calm Calm 3.8 mph6.1 kmh 30.39 in1029.1 mb 0.00 in0.0 mm 0.00 in/hr0.0 mm/hr 0.00 in0.0 mm
01:25 AM 34.3°F1.3°C 22.7°F-5.2°C 62% 0.7 mph SE1.1 kmh SE 3.8 mph6.1 kmh 30.39 in1029.1 mb 0.00 in0.0 mm 0.00 in/hr0.0 mm/hr 0.00 in0.0 mm
01:30 AM 34.7°F1.5°C 23.0°F-5.0°C 62% Calm Calm 3.8 mph6.1 kmh 30.38 in1028.8 mb 0.00 in0.0 mm 0.00 in/hr0.0 mm/hr 0.00 in0.0 mm
01:35 AM 34.9°F1.6°C 22.8°F-5.1°C 61% 1.6 mph SSE2.6 kmh SSE 3.1 mph5.0 kmh 30.39 in1029.1 mb 0.00 in0.0 mm 0.00 in/hr0.0 mm/hr 0.00 in0.0 mm
01:40 AM 35.2°F1.8°C 22.8°F-5.1°C 60% 0.7 mph SE1.1 kmh SE 3.8 mph6.1 kmh 30.39 in1029.1 mb 0.00 in0.0 mm 0.00 in/hr0.0 mm/hr 0.00 in0.0 mm
01:45 AM 35.4°F1.9°C 23.7°F-4.6°C 62% 0.7 mph E1.1 kmh E 3.8 mph6.1 kmh 30.39 in1029.1 mb 0.00 in0.0 mm 0.00 in/hr0.0 mm/hr 0.00 in0.0 mm
01:50 AM 35.2°F1.8°C 23.2°F-4.9°C 61% 0.7 mph ENE1.1 kmh ENE 3.1 mph5.0 kmh 30.39 in1029.1 mb 0.00 in0.0 mm 0.00 in/hr0.0 mm/hr 0.00 in0.0 mm
01:55 AM 35.8°F2.1°C 22.9°F-5.1°C 59% 2.2 mph ESE3.5 kmh ESE 5.4 mph8.7 kmh 30.39 in1029.1 mb 0.00 in0.0 mm 0.00 in/hr0.0 mm/hr 0.00 in0.0 mm
02:00 AM 35.6°F2.0°C 23.9°F-4.5°C 62% 1.6 mph SE2.6 kmh SE 5.4 mph8.7 kmh 30.39 in1029.1 mb 0.00 in0.0 mm 0.00 in/hr0.0 mm/hr 0.00 in0.0 mm
02:05 AM 35.6°F2.0°C 23.5°F-4.7°C 61% 0.7 mph SSE1.1 kmh SSE 5.4 mph8.7 kmh 30.39 in1029.1 mb 0.00 in0.0 mm 0.00 in/hr0.0 mm/hr 0.00 in0.0 mm
02:10 AM 36.5°F2.5°C 23.6°F-4.7°C 59% 2.2 mph S3.5 kmh S 5.4 mph8.7 kmh 30.39 in1029.1 mb 0.00 in0.0 mm 0.00 in/hr0.0 mm/hr 0.00 in0.0 mm
02:15 AM 36.9°F2.7°C 23.5°F-4.7°C 58% 1.6 mph S2.6 kmh S 4.5 mph7.2 kmh 30.39 in1029.1 mb 0.00 in0.0 mm 0.00 in/hr0.0 mm/hr 0.00 in0.0 mm
02:20 AM 37.6°F3.1°C 22.9°F-5.1°C 55% 1.6 mph S2.6 kmh S 5.4 mph8.7 kmh 30.38 in1028.8 mb 0.00 in0.0 mm 0.00 in/hr0.0 mm/hr 0.00 in0.0 mm
02:25 AM 38.1°F3.4°C 23.4°F-4.8°C 55% 1.6 mph SSE2.6 kmh SSE 5.4 mph8.7 kmh 30.38 in1028.8 mb 0.00 in0.0 mm 0.00 in/hr0.0 mm/hr 0.00 in0.0 mm
02:30 AM 38.3°F3.5°C 22.7°F-5.2°C 53% 2.2 mph SSE3.5 kmh SSE 6.0 mph9.7 kmh 30.38 in1028.8 mb 0.00 in0.0 mm 0.00 in/hr0.0 mm/hr 0.00 in0.0 mm
02:35 AM 38.5°F3.6°C 23.3°F-4.8°C 54% 0.7 mph SSE1.1 kmh SSE 6.0 mph9.7 kmh 30.38 in1028.8 mb 0.00 in0.0 mm 0.00 in/hr0.0 mm/hr 0.00 in0.0 mm
02:40 AM 38.5°F3.6°C 23.3°F-4.8°C 54% 1.6 mph SSE2.6 kmh SSE 4.5 mph7.2 kmh 30.38 in1028.8 mb 0.00 in0.0 mm 0.00 in/hr0.0 mm/hr 0.00 in0.0 mm
02:45 AM 38.5°F3.6°C 23.3°F-4.8°C 54% 1.6 mph SE2.6 kmh SE 5.4 mph8.7 kmh 30.38 in1028.8 mb 0.00 in0.0 mm 0.00 in/hr0.0 mm/hr 0.00 in0.0 mm
02:50 AM 38.3°F3.5°C 23.1°F-4.9°C 54% 0.7 mph SE1.1 kmh SE 5.4 mph8.7 kmh 30.38 in1028.8 mb 0.00 in0.0 mm 0.00 in/hr0.0 mm/hr 0.00 in0.0 mm
02:55 AM 38.3°F3.5°C 24.0°F-4.4°C 56% 0.7 mph SE1.1 kmh SE 5.4 mph8.7 kmh 30.38 in1028.8 mb 0.00 in0.0 mm 0.00 in/hr0.0 mm/hr 0.00 in0.0 mm
03:00 AM 38.1°F3.4°C 23.4°F-4.8°C 55% 2.2 mph SE3.5 kmh SE 3.8 mph6.1 kmh 30.38 in1028.8 mb 0.00 in0.0 mm 0.00 in/hr0.0 mm/hr 0.00 in0.0 mm
03:05 AM 38.1°F3.4°C 23.4°F-4.8°C 55% 2.2 mph SSE3.5 kmh SSE 3.8 mph6.1 kmh 30.38 in1028.8 mb 0.00 in0.0 mm 0.00 in/hr0.0 mm/hr 0.00 in0.0 mm
03:10 AM 38.5°F3.6°C 23.7°F-4.6°C 55% Calm Calm 3.8 mph6.1 kmh 30.38 in1028.8 mb 0.00 in0.0 mm 0.00 in/hr0.0 mm/hr 0.00 in0.0 mm
03:15 AM 38.5°F3.6°C 23.3°F-4.8°C 54% 0.7 mph SSE1.1 kmh SSE 3.8 mph6.1 kmh 30.38 in1028.8 mb 0.00 in0.0 mm 0.00 in/hr0.0 mm/hr 0.00 in0.0 mm
03:20 AM 38.5°F3.6°C 23.7°F-4.6°C 55% 2.2 mph SSE3.5 kmh SSE 4.5 mph7.2 kmh 30.39 in1029.1 mb 0.00 in0.0 mm 0.00 in/hr0.0 mm/hr 0.00 in0.0 mm
03:25 AM 38.1°F3.4°C 23.4°F-4.8°C 55% 2.2 mph SSE3.5 kmh SSE 6.9 mph11.1 kmh 30.38 in1028.8 mb 0.00 in0.0 mm 0.00 in/hr0.0 mm/hr 0.00 in0.0 mm
03:30 AM 38.3°F3.5°C 24.0°F-4.4°C 56% 2.2 mph SSE3.5 kmh SSE 6.9 mph11.1 kmh 30.39 in1029.1 mb 0.00 in0.0 mm 0.00 in/hr0.0 mm/hr 0.00 in0.0 mm
03:35 AM 38.3°F3.5°C 24.0°F-4.4°C 56% 1.6 mph S2.6 kmh S 6.9 mph11.1 kmh 30.38 in1028.8 mb 0.00 in0.0 mm 0.00 in/hr0.0 mm/hr 0.00 in0.0 mm
03:40 AM 38.3°F3.5°C 24.0°F-4.4°C 56% 3.8 mph S6.1 kmh S 6.9 mph11.1 kmh 30.39 in1029.1 mb 0.00 in0.0 mm 0.00 in/hr0.0 mm/hr 0.00 in0.0 mm
03:45 AM 38.5°F3.6°C 24.2°F-4.3°C 56% 2.2 mph S3.5 kmh S 6.9 mph11.1 kmh 30.38 in1028.8 mb 0.00 in0.0 mm 0.00 in/hr0.0 mm/hr 0.00 in0.0 mm
03:50 AM 38.8°F3.8°C 24.5°F-4.2°C 56% 2.2 mph S3.5 kmh S 7.6 mph12.2 kmh 30.38 in1028.8 mb 0.00 in0.0 mm 0.00 in/hr0.0 mm/hr 0.00 in0.0 mm
03:55 AM 39.0°F3.9°C 24.7°F-4.1°C 56% 1.6 mph S2.6 kmh S 7.6 mph12.2 kmh 30.37 in1028.4 mb 0.00 in0.0 mm 0.00 in/hr0.0 mm/hr 0.00 in0.0 mm
04:00 AM 39.0°F3.9°C 24.7°F-4.1°C 56% 2.2 mph SSE3.5 kmh SSE 6.0 mph9.7 kmh 30.37 in1028.4 mb 0.00 in0.0 mm 0.00 in/hr0.0 mm/hr 0.00 in0.0 mm
04:05 AM 39.0°F3.9°C 24.7°F-4.1°C 56% 2.2 mph SSE3.5 kmh SSE 6.0 mph9.7 kmh 30.38 in1028.8 mb 0.00 in0.0 mm 0.00 in/hr0.0 mm/hr 0.00 in0.0 mm
04:10 AM 39.2°F4.0°C 24.8°F-4.0°C 56% 1.6 mph S2.6 kmh S 6.9 mph11.1 kmh 30.38 in1028.8 mb 0.00 in0.0 mm 0.00 in/hr0.0 mm/hr 0.00 in0.0 mm
04:15 AM 39.2°F4.0°C 24.8°F-4.0°C 56% 3.1 mph SSW5.0 kmh SSW 6.9 mph11.1 kmh 30.38 in1028.8 mb 0.00 in0.0 mm 0.00 in/hr0.0 mm/hr 0.00 in0.0 mm
04:20 AM 39.2°F4.0°C 24.8°F-4.0°C 56% 1.6 mph S2.6 kmh S 6.0 mph9.7 kmh 30.38 in1028.8 mb 0.00 in0.0 mm 0.00 in/hr0.0 mm/hr 0.00 in0.0 mm
04:25 AM 39.4°F4.1°C 25.0°F-3.9°C 56% 0.7 mph S1.1 kmh S 5.4 mph8.7 kmh 30.37 in1028.4 mb 0.00 in0.0 mm 0.00 in/hr0.0 mm/hr 0.00 in0.0 mm
04:30 AM 39.4°F4.1°C 25.0°F-3.9°C 56% 1.6 mph SE2.6 kmh SE 6.0 mph9.7 kmh 30.37 in1028.4 mb 0.00 in0.0 mm 0.00 in/hr0.0 mm/hr 0.00 in0.0 mm
04:35 AM 39.6°F4.2°C 25.6°F-3.6°C 57% 2.2 mph E3.5 kmh E 6.0 mph9.7 kmh 30.37 in1028.4 mb 0.00 in0.0 mm 0.00 in/hr0.0 mm/hr 0.00 in0.0 mm
04:40 AM 39.6°F4.2°C 25.6°F-3.6°C 57% 2.2 mph SE3.5 kmh SE 5.4 mph8.7 kmh 30.36 in1028.1 mb 0.00 in0.0 mm 0.00 in/hr0.0 mm/hr 0.00 in0.0 mm
04:45 AM 39.7°F4.3°C 25.8°F-3.4°C 57% 2.2 mph SSE3.5 kmh SSE 6.0 mph9.7 kmh 30.36 in1028.1 mb 0.00 in0.0 mm 0.00 in/hr0.0 mm/hr 0.00 in0.0 mm
04:50 AM 39.9°F4.4°C 25.9°F-3.4°C 57% 1.6 mph SSE2.6 kmh SSE 6.0 mph9.7 kmh 30.36 in1028.1 mb 0.00 in0.0 mm 0.00 in/hr0.0 mm/hr 0.00 in0.0 mm
04:55 AM 39.9°F4.4°C 25.9°F-3.4°C 57% 1.6 mph SSE2.6 kmh SSE 5.4 mph8.7 kmh 30.37 in1028.4 mb 0.00 in0.0 mm 0.00 in/hr0.0 mm/hr 0.00 in0.0 mm
05:00 AM 40.1°F4.5°C 26.1°F-3.3°C 57% 1.6 mph SE2.6 kmh SE 5.4 mph8.7 kmh 30.37 in1028.4 mb 0.00 in0.0 mm 0.00 in/hr0.0 mm/hr 0.00 in0.0 mm
05:05 AM 40.1°F4.5°C 26.1°F-3.3°C 57% 1.6 mph S2.6 kmh S 4.5 mph7.2 kmh 30.36 in1028.1 mb 0.00 in0.0 mm 0.00 in/hr0.0 mm/hr 0.00 in0.0 mm
05:10 AM 40.5°F4.7°C 26.9°F-2.8°C 58% Calm Calm 4.5 mph7.2 kmh 30.37 in1028.4 mb 0.00 in0.0 mm 0.00 in/hr0.0 mm/hr 0.00 in0.0 mm
05:15 AM 40.6°F4.8°C 27.0°F-2.8°C 58% 3.1 mph S5.0 kmh S 6.0 mph9.7 kmh 30.37 in1028.4 mb 0.00 in0.0 mm 0.00 in/hr0.0 mm/hr 0.00 in0.0 mm
05:20 AM 40.8°F4.9°C 27.2°F-2.7°C 58% 0.7 mph E1.1 kmh E 6.0 mph9.7 kmh 30.37 in1028.4 mb 0.00 in0.0 mm 0.00 in/hr0.0 mm/hr 0.00 in0.0 mm
05:25 AM 40.8°F4.9°C 27.2°F-2.7°C 58% 2.2 mph ESE3.5 kmh ESE 6.0 mph9.7 kmh 30.37 in1028.4 mb 0.00 in0.0 mm 0.00 in/hr0.0 mm/hr 0.00 in0.0 mm
05:30 AM 41.0°F5.0°C 27.4°F-2.6°C 58% Calm Calm 7.6 mph12.2 kmh 30.37 in1028.4 mb 0.00 in0.0 mm 0.00 in/hr0.0 mm/hr 0.00 in0.0 mm
05:35 AM 41.0°F5.0°C 27.4°F-2.6°C 58% 0.7 mph SE1.1 kmh SE 7.6 mph12.2 kmh 30.37 in1028.4 mb 0.00 in0.0 mm 0.00 in/hr0.0 mm/hr 0.00 in0.0 mm
05:40 AM 41.2°F5.1°C 27.5°F-2.5°C 58% 2.2 mph S3.5 kmh S 6.0 mph9.7 kmh 30.36 in1028.1 mb 0.00 in0.0 mm 0.00 in/hr0.0 mm/hr 0.00 in0.0 mm
05:45 AM 41.4°F5.2°C 27.7°F-2.4°C 58% Calm Calm 6.9 mph11.1 kmh 30.37 in1028.4 mb 0.00 in0.0 mm 0.00 in/hr0.0 mm/hr 0.00 in0.0 mm
05:50 AM 41.5°F5.3°C 28.3°F-2.1°C 59% 1.6 mph S2.6 kmh S 6.9 mph11.1 kmh 30.37 in1028.4 mb 0.00 in0.0 mm 0.00 in/hr0.0 mm/hr 0.00 in0.0 mm
05:55 AM 41.5°F5.3°C 27.9°F-2.3°C 58% 2.2 mph SE3.5 kmh SE 8.3 mph13.4 kmh 30.37 in1028.4 mb 0.00 in0.0 mm 0.00 in/hr0.0 mm/hr 0.00 in0.0 mm
06:00 AM 41.7°F5.4°C 28.5°F-1.9°C 59% 1.6 mph SE2.6 kmh SE 8.3 mph13.4 kmh 30.37 in1028.4 mb 0.00 in0.0 mm 0.00 in/hr0.0 mm/hr 0.00 in0.0 mm
06:05 AM 41.7°F5.4°C 28.5°F-1.9°C 59% 3.1 mph S5.0 kmh S 7.6 mph12.2 kmh 30.37 in1028.4 mb 0.00 in0.0 mm 0.00 in/hr0.0 mm/hr 0.00 in0.0 mm
06:10 AM 42.3°F5.7°C 29.0°F-1.7°C 59% 2.2 mph S3.5 kmh S 5.4 mph8.7 kmh 30.37 in1028.4 mb 0.00 in0.0 mm 0.00 in/hr0.0 mm/hr 0.00 in0.0 mm
06:15 AM 42.4°F5.8°C 29.1°F-1.6°C 59% 1.6 mph SSE2.6 kmh SSE 7.6 mph12.2 kmh 30.37 in1028.4 mb 0.00 in0.0 mm 0.00 in/hr0.0 mm/hr 0.00 in0.0 mm
06:20 AM 42.6°F5.9°C 29.3°F-1.5°C 59% 3.1 mph SE5.0 kmh SE 7.6 mph12.2 kmh 30.37 in1028.4 mb 0.00 in0.0 mm 0.00 in/hr0.0 mm/hr 0.00 in0.0 mm
06:25 AM 42.8°F6.0°C 29.1°F-1.6°C 58% 1.6 mph SSE2.6 kmh SSE 6.9 mph11.1 kmh 30.37 in1028.4 mb 0.00 in0.0 mm 0.00 in/hr0.0 mm/hr 0.00 in0.0 mm
06:30 AM 43.0°F6.1°C 29.6°F-1.3°C 59% 1.6 mph S2.6 kmh S 6.9 mph11.1 kmh 30.37 in1028.4 mb 0.00 in0.0 mm 0.00 in/hr0.0 mm/hr 0.00 in0.0 mm
06:35 AM 42.8°F6.0°C 29.5°F-1.4°C 59% 1.6 mph E2.6 kmh E 6.9 mph11.1 kmh 30.37 in1028.4 mb 0.00 in0.0 mm 0.00 in/hr0.0 mm/hr 0.00 in0.0 mm
06:40 AM 43.0°F6.1°C 29.6°F-1.3°C 59% 2.2 mph NE3.5 kmh NE 7.6 mph12.2 kmh 30.37 in1028.4 mb 0.00 in0.0 mm 0.00 in/hr0.0 mm/hr 0.00 in0.0 mm
06:45 AM 43.0°F6.1°C 29.6°F-1.3°C 59% 2.2 mph NE3.5 kmh NE 9.8 mph15.8 kmh 30.37 in1028.4 mb 0.00 in0.0 mm 0.00 in/hr0.0 mm/hr 0.00 in0.0 mm
06:50 AM 43.0°F6.1°C 29.6°F-1.3°C 59% 1.6 mph S2.6 kmh S 9.8 mph15.8 kmh 30.37 in1028.4 mb 0.00 in0.0 mm 0.00 in/hr0.0 mm/hr 0.00 in0.0 mm
06:55 AM 43.0°F6.1°C 29.6°F-1.3°C 59% 1.6 mph SW2.6 kmh SW 6.0 mph9.7 kmh 30.37 in1028.4 mb 0.00 in0.0 mm 0.00 in/hr0.0 mm/hr 0.00 in0.0 mm
07:00 AM 43.0°F6.1°C 30.1°F-1.1°C 60% 0.7 mph WSW1.1 kmh WSW 6.9 mph11.1 kmh 30.37 in1028.4 mb 0.00 in0.0 mm 0.00 in/hr0.0 mm/hr 0.00 in0.0 mm
07:05 AM 43.0°F6.1°C 30.1°F-1.1°C 60% 0.7 mph NNW1.1 kmh NNW 6.9 mph11.1 kmh 30.37 in1028.4 mb 0.00 in0.0 mm 0.00 in/hr0.0 mm/hr 0.00 in0.0 mm
07:10 AM 43.5°F6.4°C 30.2°F-1.0°C 59% 2.2 mph NNE3.5 kmh NNE 6.0 mph9.7 kmh 30.37 in1028.4 mb 0.00 in0.0 mm 0.00 in/hr0.0 mm/hr 0.00 in0.0 mm
07:15 AM 43.5°F6.4°C 30.2°F-1.0°C 59% 1.6 mph ENE2.6 kmh ENE 6.0 mph9.7 kmh 30.36 in1028.1 mb 0.00 in0.0 mm 0.00 in/hr0.0 mm/hr 0.00 in0.0 mm
07:20 AM 43.7°F6.5°C 30.3°F-0.9°C 59% 2.2 mph SSE3.5 kmh SSE 6.0 mph9.7 kmh 30.37 in1028.4 mb 0.00 in0.0 mm 0.00 in/hr0.0 mm/hr 0.00 in0.0 mm
07:25 AM 43.9°F6.6°C 30.5°F-0.8°C 59% 1.6 mph S2.6 kmh S 6.0 mph9.7 kmh 30.38 in1028.8 mb 0.00 in0.0 mm 0.00 in/hr0.0 mm/hr 0.00 in0.0 mm
07:30 AM 43.9°F6.6°C 30.5°F-0.8°C 59% 0.7 mph SW1.1 kmh SW 5.4 mph8.7 kmh 30.37 in1028.4 mb 0.00 in0.0 mm 0.00 in/hr0.0 mm/hr 0.00 in0.0 mm
07:35 AM 43.9°F6.6°C 30.5°F-0.8°C 59% 0.7 mph N1.1 kmh N 5.4 mph8.7 kmh 30.37 in1028.4 mb 0.00 in0.0 mm 0.00 in/hr0.0 mm/hr 0.00 in0.0 mm
07:40 AM 43.9°F6.6°C 30.5°F-0.8°C 59% 2.2 mph N3.5 kmh N 6.0 mph9.7 kmh 30.37 in1028.4 mb 0.00 in0.0 mm 0.00 in/hr0.0 mm/hr 0.00 in0.0 mm
07:45 AM 43.9°F6.6°C 30.5°F-0.8°C 59% 2.2 mph N3.5 kmh N 6.0 mph9.7 kmh 30.37 in1028.4 mb 0.00 in0.0 mm 0.00 in/hr0.0 mm/hr 0.00 in0.0 mm
07:50 AM 43.9°F6.6°C 30.5°F-0.8°C 59% 2.2 mph N3.5 kmh N 6.0 mph9.7 kmh 30.37 in1028.4 mb 0.00 in0.0 mm 0.00 in/hr0.0 mm/hr 0.00 in0.0 mm
07:55 AM 43.9°F6.6°C 30.5°F-0.8°C 59% 2.2 mph N3.5 kmh N 6.0 mph9.7 kmh 30.37 in1028.4 mb 0.00 in0.0 mm 0.00 in/hr0.0 mm/hr 0.00 in0.0 mm
08:00 AM 43.9°F6.6°C 30.5°F-0.8°C 59% 2.2 mph N3.5 kmh N 6.0 mph9.7 kmh 30.37 in1028.4 mb 0.00 in0.0 mm 0.00 in/hr0.0 mm/hr 0.00 in0.0 mm
08:05 AM 43.9°F6.6°C 30.5°F-0.8°C 59% 2.2 mph N3.5 kmh N 6.0 mph9.7 kmh 30.37 in1028.4 mb 0.00 in0.0 mm 0.00 in/hr0.0 mm/hr 0.00 in0.0 mm
08:10 AM 43.9°F6.6°C 30.5°F-0.8°C 59% 2.2 mph N3.5 kmh N 6.0 mph9.7 kmh 30.37 in1028.4 mb 0.00 in0.0 mm 0.00 in/hr0.0 mm/hr 0.00 in0.0 mm
08:15 AM 43.9°F6.6°C 30.5°F-0.8°C 59% 2.2 mph N3.5 kmh N 6.0 mph9.7 kmh 30.37 in1028.4 mb 0.00 in0.0 mm 0.00 in/hr0.0 mm/hr 0.00 in0.0 mm
08:20 AM 43.9°F6.6°C 30.5°F-0.8°C 59% 2.2 mph N3.5 kmh N 6.0 mph9.7 kmh 30.37 in1028.4 mb 0.00 in0.0 mm 0.00 in/hr0.0 mm/hr 0.00 in0.0 mm
08:25 AM 43.9°F6.6°C 30.5°F-0.8°C 59% 2.2 mph N3.5 kmh N 6.0 mph9.7 kmh 30.37 in1028.4 mb 0.00 in0.0 mm 0.00 in/hr0.0 mm/hr 0.00 in0.0 mm
08:30 AM 43.9°F6.6°C 30.5°F-0.8°C 59% 2.2 mph N3.5 kmh N 6.0 mph9.7 kmh 30.37 in1028.4 mb 0.00 in0.0 mm 0.00 in/hr0.0 mm/hr 0.00 in0.0 mm
08:35 AM 43.9°F6.6°C 30.5°F-0.8°C 59% 2.2 mph N3.5 kmh N 6.0 mph9.7 kmh 30.37 in1028.4 mb 0.00 in0.0 mm 0.00 in/hr0.0 mm/hr 0.00 in0.0 mm
08:40 AM 43.9°F6.6°C 30.5°F-0.8°C 59% 2.2 mph N3.5 kmh N 6.0 mph9.7 kmh 30.37 in1028.4 mb 0.00 in0.0 mm 0.00 in/hr0.0 mm/hr 0.00 in0.0 mm
08:45 AM 46.6°F8.1°C 32.2°F0.1°C 57% 1.6 mph W2.6 kmh W 3.8 mph6.1 kmh 30.37 in1028.4 mb 0.00 in0.0 mm 0.00 in/hr0.0 mm/hr 0.00 in0.0 mm
08:50 AM 46.2°F7.9°C 32.3°F0.2°C 58% 2.2 mph WNW3.5 kmh WNW 6.9 mph11.1 kmh 30.37 in1028.4 mb 0.00 in0.0 mm 0.00 in/hr0.0 mm/hr 0.00 in0.0 mm
08:55 AM 46.9°F8.3°C 32.9°F0.5°C 58% 1.6 mph W2.6 kmh W 6.9 mph11.1 kmh 30.37 in1028.4 mb 0.00 in0.0 mm 0.00 in/hr0.0 mm/hr 0.00 in0.0 mm
09:00 AM 46.9°F8.3°C 32.9°F0.5°C 58% 1.6 mph W2.6 kmh W 6.9 mph11.1 kmh 30.37 in1028.4 mb 0.00 in0.0 mm 0.00 in/hr0.0 mm/hr 0.00 in0.0 mm
09:05 AM 46.9°F8.3°C 32.9°F0.5°C 58% 1.6 mph W2.6 kmh W 6.9 mph11.1 kmh 30.37 in1028.4 mb 0.00 in0.0 mm 0.00 in/hr0.0 mm/hr 0.00 in0.0 mm
09:10 AM 46.9°F8.3°C 32.9°F0.5°C 58% 1.6 mph W2.6 kmh W 6.9 mph11.1 kmh 30.37 in1028.4 mb 0.00 in0.0 mm 0.00 in/hr0.0 mm/hr 0.00 in0.0 mm
09:15 AM 46.9°F8.3°C 32.9°F0.5°C 58% 1.6 mph W2.6 kmh W 6.9 mph11.1 kmh 30.37 in1028.4 mb 0.00 in0.0 mm 0.00 in/hr0.0 mm/hr 0.00 in0.0 mm
09:20 AM 46.9°F8.3°C 32.9°F0.5°C 58% 1.6 mph W2.6 kmh W 6.9 mph11.1 kmh 30.37 in1028.4 mb 0.00 in0.0 mm 0.00 in/hr0.0 mm/hr 0.00 in0.0 mm
09:25 AM 46.9°F8.3°C 32.9°F0.5°C 58% 1.6 mph W2.6 kmh W 6.9 mph11.1 kmh 30.37 in1028.4 mb 0.00 in0.0 mm 0.00 in/hr0.0 mm/hr 0.00 in0.0 mm
09:30 AM 46.9°F8.3°C 32.9°F0.5°C 58% 1.6 mph W2.6 kmh W 6.9 mph11.1 kmh 30.37 in1028.4 mb 0.00 in0.0 mm 0.00 in/hr0.0 mm/hr 0.00 in0.0 mm
09:35 AM 46.9°F8.3°C 32.9°F0.5°C 58% 1.6 mph W2.6 kmh W 6.9 mph11.1 kmh 30.37 in1028.4 mb 0.00 in0.0 mm 0.00 in/hr0.0 mm/hr 0.00 in0.0 mm
09:40 AM 46.9°F8.3°C 32.9°F0.5°C 58% 1.6 mph W2.6 kmh W 6.9 mph11.1 kmh 30.37 in1028.4 mb 0.00 in0.0 mm 0.00 in/hr0.0 mm/hr 0.00 in0.0 mm
09:45 AM 46.9°F8.3°C 32.9°F0.5°C 58% 1.6 mph W2.6 kmh W 6.9 mph11.1 kmh 30.37 in1028.4 mb 0.00 in0.0 mm 0.00 in/hr0.0 mm/hr 0.00 in0.0 mm
09:50 AM 46.9°F8.3°C 32.9°F0.5°C 58% 1.6 mph W2.6 kmh W 6.9 mph11.1 kmh 30.37 in1028.4 mb 0.00 in0.0 mm 0.00 in/hr0.0 mm/hr 0.00 in0.0 mm
09:55 AM 46.9°F8.3°C 32.9°F0.5°C 58% 1.6 mph W2.6 kmh W 6.9 mph11.1 kmh 30.37 in1028.4 mb 0.00 in0.0 mm 0.00 in/hr0.0 mm/hr 0.00 in0.0 mm
10:00 AM 46.9°F8.3°C 32.9°F0.5°C 58% 1.6 mph W2.6 kmh W 6.9 mph11.1 kmh 30.37 in1028.4 mb 0.00 in0.0 mm 0.00 in/hr0.0 mm/hr 0.00 in0.0 mm
10:05 AM 46.9°F8.3°C 32.9°F0.5°C 58% 1.6 mph W2.6 kmh W 6.9 mph11.1 kmh 30.37 in1028.4 mb 0.00 in0.0 mm 0.00 in/hr0.0 mm/hr 0.00 in0.0 mm
10:10 AM 46.9°F8.3°C 32.9°F0.5°C 58% 1.6 mph W2.6 kmh W 6.9 mph11.1 kmh 30.37 in1028.4 mb 0.00 in0.0 mm 0.00 in/hr0.0 mm/hr 0.00 in0.0 mm
10:15 AM 46.9°F8.3°C 32.9°F0.5°C 58% 1.6 mph W2.6 kmh W 6.9 mph11.1 kmh 30.37 in1028.4 mb 0.00 in0.0 mm 0.00 in/hr0.0 mm/hr 0.00 in0.0 mm
10:20 AM 46.9°F8.3°C 32.9°F0.5°C 58% 1.6 mph W2.6 kmh W 6.9 mph11.1 kmh 30.37 in1028.4 mb 0.00 in0.0 mm 0.00 in/hr0.0 mm/hr 0.00 in0.0 mm
10:25 AM 46.9°F8.3°C 32.9°F0.5°C 58% 1.6 mph W2.6 kmh W 6.9 mph11.1 kmh 30.37 in1028.4 mb 0.00 in0.0 mm 0.00 in/hr0.0 mm/hr 0.00 in0.0 mm
10:30 AM 46.9°F8.3°C 32.9°F0.5°C 58% 1.6 mph W2.6 kmh W 6.9 mph11.1 kmh 30.37 in1028.4 mb 0.00 in0.0 mm 0.00 in/hr0.0 mm/hr 0.00 in0.0 mm
10:35 AM 46.9°F8.3°C 32.9°F0.5°C 58% 1.6 mph W2.6 kmh W 6.9 mph11.1 kmh 30.37 in1028.4 mb 0.00 in0.0 mm 0.00 in/hr0.0 mm/hr 0.00 in0.0 mm
10:40 AM 46.9°F8.3°C 32.9°F0.5°C 58% 1.6 mph W2.6 kmh W 6.9 mph11.1 kmh 30.37 in1028.4 mb 0.00 in0.0 mm 0.00 in/hr0.0 mm/hr 0.00 in0.0 mm
10:45 AM 46.9°F8.3°C 32.9°F0.5°C 58% 1.6 mph W2.6 kmh W 6.9 mph11.1 kmh 30.37 in1028.4 mb 0.00 in0.0 mm 0.00 in/hr0.0 mm/hr 0.00 in0.0 mm
10:50 AM 46.9°F8.3°C 32.9°F0.5°C 58% 1.6 mph W2.6 kmh W 6.9 mph11.1 kmh 30.37 in1028.4 mb 0.00 in0.0 mm 0.00 in/hr0.0 mm/hr 0.00 in0.0 mm
10:55 AM 46.9°F8.3°C 32.9°F0.5°C 58% 1.6 mph W2.6 kmh W 6.9 mph11.1 kmh 30.37 in1028.4 mb 0.00 in0.0 mm 0.00 in/hr0.0 mm/hr 0.00 in0.0 mm
11:00 AM 46.9°F8.3°C 32.9°F0.5°C 58% 1.6 mph W2.6 kmh W 6.9 mph11.1 kmh 30.37 in1028.4 mb 0.00 in0.0 mm 0.00 in/hr0.0 mm/hr 0.00 in0.0 mm
11:05 AM 46.9°F8.3°C 32.9°F0.5°C 58% 1.6 mph W2.6 kmh W 6.9 mph11.1 kmh 30.37 in1028.4 mb 0.00 in0.0 mm 0.00 in/hr0.0 mm/hr 0.00 in0.0 mm
11:10 AM 46.9°F8.3°C 32.9°F0.5°C 58% 1.6 mph W2.6 kmh W 6.9 mph11.1 kmh 30.37 in1028.4 mb 0.00 in0.0 mm 0.00 in/hr0.0 mm/hr 0.00 in0.0 mm
11:15 AM 46.9°F8.3°C 32.9°F0.5°C 58% 1.6 mph W2.6 kmh W 6.9 mph11.1 kmh 30.37 in1028.4 mb 0.00 in0.0 mm 0.00 in/hr0.0 mm/hr 0.00 in0.0 mm
11:20 AM 46.9°F8.3°C 32.9°F0.5°C 58% 1.6 mph W2.6 kmh W 6.9 mph11.1 kmh 30.37 in1028.4 mb 0.00 in0.0 mm 0.00 in/hr0.0 mm/hr 0.00 in0.0 mm
11:25 AM 46.9°F8.3°C 32.9°F0.5°C 58% 1.6 mph W2.6 kmh W 6.9 mph11.1 kmh 30.37 in1028.4 mb 0.00 in0.0 mm 0.00 in/hr0.0 mm/hr 0.00 in0.0 mm
11:30 AM 46.9°F8.3°C 32.9°F0.5°C 58% 1.6 mph W2.6 kmh W 6.9 mph11.1 kmh 30.37 in1028.4 mb 0.00 in0.0 mm 0.00 in/hr0.0 mm/hr 0.00 in0.0 mm
11:35 AM 60.1°F15.6°C 40.3°F4.6°C 48% 2.2 mph W3.5 kmh W 9.2 mph14.8 kmh 30.34 in1027.4 mb 0.00 in0.0 mm 0.00 in/hr0.0 mm/hr 0.00 in0.0 mm
11:40 AM 60.1°F15.6°C 40.3°F4.6°C 48% 2.2 mph W3.5 kmh W 9.2 mph14.8 kmh 30.34 in1027.4 mb 0.00 in0.0 mm 0.00 in/hr0.0 mm/hr 0.00 in0.0 mm
11:45 AM 60.1°F15.6°C 40.3°F4.6°C 48% 2.2 mph W3.5 kmh W 9.2 mph14.8 kmh 30.34 in1027.4 mb 0.00 in0.0 mm 0.00 in/hr0.0 mm/hr 0.00 in0.0 mm
11:50 AM 60.1°F15.6°C 40.3°F4.6°C 48% 2.2 mph W3.5 kmh W 9.2 mph14.8 kmh 30.34 in1027.4 mb 0.00 in0.0 mm 0.00 in/hr0.0 mm/hr 0.00 in0.0 mm
11:55 AM 60.1°F15.6°C 40.3°F4.6°C 48% 2.2 mph W3.5 kmh W 9.2 mph14.8 kmh 30.34 in1027.4 mb 0.00 in0.0 mm 0.00 in/hr0.0 mm/hr 0.00 in0.0 mm
12:00 PM 60.1°F15.6°C 40.3°F4.6°C 48% 2.2 mph W3.5 kmh W 9.2 mph14.8 kmh 30.34 in1027.4 mb 0.00 in0.0 mm 0.00 in/hr0.0 mm/hr 0.00 in0.0 mm
12:05 PM 60.1°F15.6°C 40.3°F4.6°C 48% 2.2 mph W3.5 kmh W 9.2 mph14.8 kmh 30.34 in1027.4 mb 0.00 in0.0 mm 0.00 in/hr0.0 mm/hr 0.00 in0.0 mm
12:10 PM 60.1°F15.6°C 40.3°F4.6°C 48% 2.2 mph W3.5 kmh W 9.2 mph14.8 kmh 30.34 in1027.4 mb 0.00 in0.0 mm 0.00 in/hr0.0 mm/hr 0.00 in0.0 mm
12:15 PM 60.1°F15.6°C 40.3°F4.6°C 48% 2.2 mph W3.5 kmh W 9.2 mph14.8 kmh 30.34 in1027.4 mb 0.00 in0.0 mm 0.00 in/hr0.0 mm/hr 0.00 in0.0 mm
12:20 PM 60.1°F15.6°C 40.3°F4.6°C 48% 2.2 mph W3.5 kmh W 9.2 mph14.8 kmh 30.34 in1027.4 mb 0.00 in0.0 mm 0.00 in/hr0.0 mm/hr 0.00 in0.0 mm
12:25 PM 60.1°F15.6°C 40.3°F4.6°C 48% 2.2 mph W3.5 kmh W 9.2 mph14.8 kmh 30.34 in1027.4 mb 0.00 in0.0 mm 0.00 in/hr0.0 mm/hr 0.00 in0.0 mm
12:30 PM 60.1°F15.6°C 40.3°F4.6°C 48% 2.2 mph W3.5 kmh W 9.2 mph14.8 kmh 30.34 in1027.4 mb 0.00 in0.0 mm 0.00 in/hr0.0 mm/hr 0.00 in0.0 mm
12:35 PM 60.1°F15.6°C 40.3°F4.6°C 48% 2.2 mph W3.5 kmh W 9.2 mph14.8 kmh 30.34 in1027.4 mb 0.00 in0.0 mm 0.00 in/hr0.0 mm/hr 0.00 in0.0 mm
12:40 PM 60.1°F15.6°C 40.3°F4.6°C 48% 2.2 mph W3.5 kmh W 9.2 mph14.8 kmh 30.34 in1027.4 mb 0.00 in0.0 mm 0.00 in/hr0.0 mm/hr 0.00 in0.0 mm
12:45 PM 60.1°F15.6°C 40.3°F4.6°C 48% 2.2 mph W3.5 kmh W 9.2 mph14.8 kmh 30.34 in1027.4 mb 0.00 in0.0 mm 0.00 in/hr0.0 mm/hr 0.00 in0.0 mm
12:50 PM 60.1°F15.6°C 40.3°F4.6°C 48% 2.2 mph W3.5 kmh W 9.2 mph14.8 kmh 30.34 in1027.4 mb 0.00 in0.0 mm 0.00 in/hr0.0 mm/hr 0.00 in0.0 mm
12:55 PM 60.1°F15.6°C 40.3°F4.6°C 48% 2.2 mph W3.5 kmh W 9.2 mph14.8 kmh 30.34 in1027.4 mb 0.00 in0.0 mm 0.00 in/hr0.0 mm/hr 0.00 in0.0 mm
01:00 PM 60.1°F15.6°C 40.3°F4.6°C 48% 2.2 mph W3.5 kmh W 9.2 mph14.8 kmh 30.34 in1027.4 mb 0.00 in0.0 mm 0.00 in/hr0.0 mm/hr 0.00 in0.0 mm
01:05 PM 60.1°F15.6°C 40.3°F4.6°C 48% 2.2 mph W3.5 kmh W 9.2 mph14.8 kmh 30.34 in1027.4 mb 0.00 in0.0 mm 0.00 in/hr0.0 mm/hr 0.00 in0.0 mm
01:10 PM 60.1°F15.6°C 40.3°F4.6°C 48% 2.2 mph W3.5 kmh W 9.2 mph14.8 kmh 30.34 in1027.4 mb 0.00 in0.0 mm 0.00 in/hr0.0 mm/hr 0.00 in0.0 mm
01:15 PM 60.1°F15.6°C 40.3°F4.6°C 48% 2.2 mph W3.5 kmh W 9.2 mph14.8 kmh 30.34 in1027.4 mb 0.00 in0.0 mm 0.00 in/hr0.0 mm/hr 0.00 in0.0 mm
01:20 PM 60.1°F15.6°C 40.3°F4.6°C 48% 2.2 mph W3.5 kmh W 9.2 mph14.8 kmh 30.34 in1027.4 mb 0.00 in0.0 mm 0.00 in/hr0.0 mm/hr 0.00 in0.0 mm
01:25 PM 60.1°F15.6°C 40.3°F4.6°C 48% 2.2 mph W3.5 kmh W 9.2 mph14.8 kmh 30.34 in1027.4 mb 0.00 in0.0 mm 0.00 in/hr0.0 mm/hr 0.00 in0.0 mm
01:30 PM 60.1°F15.6°C 40.3°F4.6°C 48% 2.2 mph W3.5 kmh W 9.2 mph14.8 kmh 30.34 in1027.4 mb 0.00 in0.0 mm 0.00 in/hr0.0 mm/hr 0.00 in0.0 mm
01:35 PM 60.1°F15.6°C 40.3°F4.6°C 48% 2.2 mph W3.5 kmh W 9.2 mph14.8 kmh 30.34 in1027.4 mb 0.00 in0.0 mm 0.00 in/hr0.0 mm/hr 0.00 in0.0 mm
01:40 PM 60.1°F15.6°C 40.3°F4.6°C 48% 2.2 mph W3.5 kmh W 9.2 mph14.8 kmh 30.34 in1027.4 mb 0.00 in0.0 mm 0.00 in/hr0.0 mm/hr 0.00 in0.0 mm
01:45 PM 60.1°F15.6°C 40.3°F4.6°C 48% 2.2 mph W3.5 kmh W 9.2 mph14.8 kmh 30.34 in1027.4 mb 0.00 in0.0 mm 0.00 in/hr0.0 mm/hr 0.00 in0.0 mm
01:50 PM 60.1°F15.6°C 40.3°F4.6°C 48% 2.2 mph W3.5 kmh W 9.2 mph14.8 kmh 30.34 in1027.4 mb 0.00 in0.0 mm 0.00 in/hr0.0 mm/hr 0.00 in0.0 mm
01:55 PM 60.1°F15.6°C 40.3°F4.6°C 48% 2.2 mph W3.5 kmh W 9.2 mph14.8 kmh 30.34 in1027.4 mb 0.00 in0.0 mm 0.00 in/hr0.0 mm/hr 0.00 in0.0 mm
02:00 PM 60.1°F15.6°C 40.3°F4.6°C 48% 2.2 mph W3.5 kmh W 9.2 mph14.8 kmh 30.34 in1027.4 mb 0.00 in0.0 mm 0.00 in/hr0.0 mm/hr 0.00 in0.0 mm
02:05 PM 60.1°F15.6°C 40.3°F4.6°C 48% 2.2 mph W3.5 kmh W 9.2 mph14.8 kmh 30.34 in1027.4 mb 0.00 in0.0 mm 0.00 in/hr0.0 mm/hr 0.00 in0.0 mm
02:10 PM 60.1°F15.6°C 40.3°F4.6°C 48% 2.2 mph W3.5 kmh W 9.2 mph14.8 kmh 30.34 in1027.4 mb 0.00 in0.0 mm 0.00 in/hr0.0 mm/hr 0.00 in0.0 mm
02:15 PM 60.1°F15.6°C 40.3°F4.6°C 48% 2.2 mph W3.5 kmh W 9.2 mph14.8 kmh 30.34 in1027.4 mb 0.00 in0.0 mm 0.00 in/hr0.0 mm/hr 0.00 in0.0 mm
02:20 PM 60.1°F15.6°C 40.3°F4.6°C 48% 2.2 mph W3.5 kmh W 9.2 mph14.8 kmh 30.34 in1027.4 mb 0.00 in0.0 mm 0.00 in/hr0.0 mm/hr 0.00 in0.0 mm
02:25 PM 62.1°F16.7°C 42.2°F5.7°C 48% 0.7 mph NW1.1 kmh NW 6.9 mph11.1 kmh 30.23 in1023.7 mb 0.00 in0.0 mm 0.00 in/hr0.0 mm/hr 0.00 in0.0 mm
02:30 PM 62.1°F16.7°C 42.2°F5.7°C 48% 0.7 mph NNW1.1 kmh NNW 6.9 mph11.1 kmh 30.24 in1024.0 mb 0.00 in0.0 mm 0.00 in/hr0.0 mm/hr 0.00 in0.0 mm
02:35 PM 62.1°F16.7°C 42.2°F5.7°C 48% 0.7 mph NNW1.1 kmh NNW 6.9 mph11.1 kmh 30.24 in1024.0 mb 0.00 in0.0 mm 0.00 in/hr0.0 mm/hr 0.00 in0.0 mm
02:40 PM 62.1°F16.7°C 42.2°F5.7°C 48% 0.7 mph NNW1.1 kmh NNW 6.9 mph11.1 kmh 30.24 in1024.0 mb 0.00 in0.0 mm 0.00 in/hr0.0 mm/hr 0.00 in0.0 mm
02:45 PM 62.1°F16.7°C 42.2°F5.7°C 48% 0.7 mph NNW1.1 kmh NNW 6.9 mph11.1 kmh 30.24 in1024.0 mb 0.00 in0.0 mm 0.00 in/hr0.0 mm/hr 0.00 in0.0 mm
02:50 PM 62.1°F16.7°C 42.2°F5.7°C 48% 0.7 mph NNW1.1 kmh NNW 6.9 mph11.1 kmh 30.24 in1024.0 mb 0.00 in0.0 mm 0.00 in/hr0.0 mm/hr 0.00 in0.0 mm
02:55 PM 62.1°F16.7°C 42.2°F5.7°C 48% 0.7 mph NNW1.1 kmh NNW 6.9 mph11.1 kmh 30.24 in1024.0 mb 0.00 in0.0 mm 0.00 in/hr0.0 mm/hr 0.00 in0.0 mm
03:00 PM 62.1°F16.7°C 42.2°F5.7°C 48% 0.7 mph NNW1.1 kmh NNW 6.9 mph11.1 kmh 30.24 in1024.0 mb 0.00 in0.0 mm 0.00 in/hr0.0 mm/hr 0.00 in0.0 mm
03:05 PM 62.1°F16.7°C 42.2°F5.7°C 48% 0.7 mph NNW1.1 kmh NNW 6.9 mph11.1 kmh 30.24 in1024.0 mb 0.00 in0.0 mm 0.00 in/hr0.0 mm/hr 0.00 in0.0 mm
03:10 PM 62.1°F16.7°C 42.2°F5.7°C 48% 0.7 mph NNW1.1 kmh NNW 6.9 mph11.1 kmh 30.24 in1024.0 mb 0.00 in0.0 mm 0.00 in/hr0.0 mm/hr 0.00 in0.0 mm
03:15 PM 62.1°F16.7°C 42.2°F5.7°C 48% 0.7 mph NNW1.1 kmh NNW 6.9 mph11.1 kmh 30.24 in1024.0 mb 0.00 in0.0 mm 0.00 in/hr0.0 mm/hr 0.00 in0.0 mm
03:20 PM 62.1°F16.7°C 42.2°F5.7°C 48% 0.7 mph NNW1.1 kmh NNW 6.9 mph11.1 kmh 30.24 in1024.0 mb 0.00 in0.0 mm 0.00 in/hr0.0 mm/hr 0.00 in0.0 mm
03:25 PM 62.1°F16.7°C 42.2°F5.7°C 48% 0.7 mph NNW1.1 kmh NNW 6.9 mph11.1 kmh 30.24 in1024.0 mb 0.00 in0.0 mm 0.00 in/hr0.0 mm/hr 0.00 in0.0 mm
03:30 PM 62.1°F16.7°C 42.2°F5.7°C 48% 0.7 mph NNW1.1 kmh NNW 6.9 mph11.1 kmh 30.24 in1024.0 mb 0.00 in0.0 mm 0.00 in/hr0.0 mm/hr 0.00 in0.0 mm
03:35 PM 60.3°F15.7°C 40.5°F4.7°C 48% 3.1 mph SSW5.0 kmh SSW 6.0 mph9.7 kmh 30.23 in1023.7 mb 0.00 in0.0 mm 0.00 in/hr0.0 mm/hr 0.00 in0.0 mm
03:40 PM 60.3°F15.7°C 41.0°F5.0°C 49% 0.7 mph SW1.1 kmh SW 6.0 mph9.7 kmh 30.22 in1023.4 mb 0.00 in0.0 mm 0.00 in/hr0.0 mm/hr 0.00 in0.0 mm
03:45 PM 59.5°F15.3°C 40.4°F4.7°C 49% 3.1 mph WSW5.0 kmh WSW 9.8 mph15.8 kmh 30.22 in1023.4 mb 0.00 in0.0 mm 0.00 in/hr0.0 mm/hr 0.00 in0.0 mm
03:50 PM 58.8°F14.9°C 40.7°F4.8°C 51% 3.1 mph SSW5.0 kmh SSW 10.7 mph17.2 kmh 30.22 in1023.4 mb 0.00 in0.0 mm 0.00 in/hr0.0 mm/hr 0.00 in0.0 mm
03:55 PM 58.8°F14.9°C 40.2°F4.6°C 50% 1.6 mph S2.6 kmh S 10.7 mph17.2 kmh 30.23 in1023.7 mb 0.00 in0.0 mm 0.00 in/hr0.0 mm/hr 0.00 in0.0 mm
04:00 PM 58.6°F14.8°C 40.1°F4.5°C 50% 1.6 mph WSW2.6 kmh WSW 6.0 mph9.7 kmh 30.23 in1023.7 mb 0.00 in0.0 mm 0.00 in/hr0.0 mm/hr 0.00 in0.0 mm
04:05 PM 58.6°F14.8°C 40.6°F4.8°C 51% Calm Calm 5.4 mph8.7 kmh 30.22 in1023.4 mb 0.00 in0.0 mm 0.00 in/hr0.0 mm/hr 0.00 in0.0 mm
04:10 PM 58.6°F14.8°C 40.6°F4.8°C 51% 3.1 mph NNE5.0 kmh NNE 6.9 mph11.1 kmh 30.21 in1023.0 mb 0.00 in0.0 mm 0.00 in/hr0.0 mm/hr 0.00 in0.0 mm
04:15 PM 58.8°F14.9°C 40.7°F4.8°C 51% 2.2 mph NE3.5 kmh NE 6.9 mph11.1 kmh 30.21 in1023.0 mb 0.00 in0.0 mm 0.00 in/hr0.0 mm/hr 0.00 in0.0 mm
04:20 PM 58.8°F14.9°C 40.7°F4.8°C 51% 2.2 mph NW3.5 kmh NW 6.9 mph11.1 kmh 30.22 in1023.4 mb 0.00 in0.0 mm 0.00 in/hr0.0 mm/hr 0.00 in0.0 mm
04:25 PM 58.5°F14.7°C 40.4°F4.7°C 51% 3.1 mph NW5.0 kmh NW 5.4 mph8.7 kmh 30.21 in1023.0 mb 0.00 in0.0 mm 0.00 in/hr0.0 mm/hr 0.00 in0.0 mm
04:30 PM 58.8°F14.9°C 40.7°F4.8°C 51% 1.6 mph SE2.6 kmh SE 7.6 mph12.2 kmh 30.21 in1023.0 mb 0.00 in0.0 mm 0.00 in/hr0.0 mm/hr 0.00 in0.0 mm
04:35 PM 59.2°F15.1°C 40.6°F4.8°C 50% 0.7 mph SE1.1 kmh SE 7.6 mph12.2 kmh 30.20 in1022.7 mb 0.00 in0.0 mm 0.00 in/hr0.0 mm/hr 0.00 in0.0 mm
04:40 PM 59.2°F15.1°C 41.1°F5.1°C 51% 0.7 mph S1.1 kmh S 3.8 mph6.1 kmh 30.20 in1022.7 mb 0.00 in0.0 mm 0.00 in/hr0.0 mm/hr 0.00 in0.0 mm
04:45 PM 59.0°F15.0°C 40.4°F4.7°C 50% 1.6 mph NNE2.6 kmh NNE 3.8 mph6.1 kmh 30.21 in1023.0 mb 0.00 in0.0 mm 0.00 in/hr0.0 mm/hr 0.00 in0.0 mm
04:50 PM 58.6°F14.8°C 40.1°F4.5°C 50% 1.6 mph SW2.6 kmh SW 3.8 mph6.1 kmh 30.20 in1022.7 mb 0.00 in0.0 mm 0.00 in/hr0.0 mm/hr 0.00 in0.0 mm
04:55 PM 57.9°F14.4°C 39.9°F4.4°C 51% 0.7 mph S1.1 kmh S 5.4 mph8.7 kmh 30.20 in1022.7 mb 0.00 in0.0 mm 0.00 in/hr0.0 mm/hr 0.00 in0.0 mm
05:00 PM 57.4°F14.1°C 39.9°F4.4°C 52% Calm Calm 5.4 mph8.7 kmh 30.19 in1022.4 mb 0.00 in0.0 mm 0.00 in/hr0.0 mm/hr 0.00 in0.0 mm
05:05 PM 56.8°F13.8°C 39.9°F4.4°C 53% Calm Calm 3.8 mph6.1 kmh 30.19 in1022.4 mb 0.00 in0.0 mm 0.00 in/hr0.0 mm/hr 0.00 in0.0 mm
05:10 PM 56.3°F13.5°C 39.4°F4.1°C 53% Calm Calm 5.4 mph8.7 kmh 30.19 in1022.4 mb 0.00 in0.0 mm 0.00 in/hr0.0 mm/hr 0.00 in0.0 mm
05:15 PM 56.1°F13.4°C 39.2°F4.0°C 53% 1.6 mph SE2.6 kmh SE 5.4 mph8.7 kmh 30.18 in1022.0 mb 0.00 in0.0 mm 0.00 in/hr0.0 mm/hr 0.00 in0.0 mm
05:20 PM 56.1°F13.4°C 39.2°F4.0°C 53% 1.6 mph SSE2.6 kmh SSE 4.5 mph7.2 kmh 30.18 in1022.0 mb 0.00 in0.0 mm 0.00 in/hr0.0 mm/hr 0.00 in0.0 mm
05:25 PM 55.4°F13.0°C 39.0°F3.9°C 54% 1.6 mph SSE2.6 kmh SSE 5.4 mph8.7 kmh 30.19 in1022.4 mb 0.00 in0.0 mm 0.00 in/hr0.0 mm/hr 0.00 in0.0 mm
05:30 PM 55.0°F12.8°C 38.7°F3.7°C 54% 1.6 mph ESE2.6 kmh ESE 5.4 mph8.7 kmh 30.18 in1022.0 mb 0.00 in0.0 mm 0.00 in/hr0.0 mm/hr 0.00 in0.0 mm
05:35 PM 54.9°F12.7°C 38.5°F3.6°C 54% 2.2 mph ESE3.5 kmh ESE 4.5 mph7.2 kmh 30.18 in1022.0 mb 0.00 in0.0 mm 0.00 in/hr0.0 mm/hr 0.00 in0.0 mm
05:40 PM 54.5°F12.5°C 38.2°F3.4°C 54% Calm Calm 3.8 mph6.1 kmh 30.17 in1021.7 mb 0.00 in0.0 mm 0.00 in/hr0.0 mm/hr 0.00 in0.0 mm
05:45 PM 54.3°F12.4°C 38.5°F3.6°C 55% 1.6 mph SE2.6 kmh SE 4.5 mph7.2 kmh 30.18 in1022.0 mb 0.00 in0.0 mm 0.00 in/hr0.0 mm/hr 0.00 in0.0 mm
05:50 PM 54.0°F12.2°C 38.2°F3.4°C 55% 1.6 mph SSE2.6 kmh SSE 4.5 mph7.2 kmh 30.18 in1022.0 mb 0.00 in0.0 mm 0.00 in/hr0.0 mm/hr 0.00 in0.0 mm
05:55 PM 53.8°F12.1°C 38.0°F3.3°C 55% 0.7 mph E1.1 kmh E 4.5 mph7.2 kmh 30.17 in1021.7 mb 0.00 in0.0 mm 0.00 in/hr0.0 mm/hr 0.00 in0.0 mm
06:00 PM 53.8°F12.1°C 38.5°F3.6°C 56% 2.2 mph E3.5 kmh E 5.4 mph8.7 kmh 30.17 in1021.7 mb 0.00 in0.0 mm 0.00 in/hr0.0 mm/hr 0.00 in0.0 mm
06:05 PM 53.6°F12.0°C 38.3°F3.5°C 56% 0.7 mph ESE1.1 kmh ESE 5.4 mph8.7 kmh 30.17 in1021.7 mb 0.00 in0.0 mm 0.00 in/hr0.0 mm/hr 0.00 in0.0 mm
06:10 PM 53.4°F11.9°C 38.1°F3.4°C 56% 2.2 mph ESE3.5 kmh ESE 4.5 mph7.2 kmh 30.17 in1021.7 mb 0.00 in0.0 mm 0.00 in/hr0.0 mm/hr 0.00 in0.0 mm
06:15 PM 53.4°F11.9°C 38.1°F3.4°C 56% 1.6 mph SE2.6 kmh SE 5.4 mph8.7 kmh 30.17 in1021.7 mb 0.00 in0.0 mm 0.00 in/hr0.0 mm/hr 0.00 in0.0 mm
06:40 PM 53.1°F11.7°C 38.7°F3.7°C 58% 2.2 mph S3.5 kmh S 9.8 mph15.8 kmh 30.16 in1021.3 mb 0.00 in0.0 mm 0.00 in/hr0.0 mm/hr 0.00 in0.0 mm
06:45 PM 53.1°F11.7°C 38.7°F3.7°C 58% 1.6 mph S2.6 kmh S 6.9 mph11.1 kmh 30.16 in1021.3 mb 0.00 in0.0 mm 0.00 in/hr0.0 mm/hr 0.00 in0.0 mm
06:50 PM 53.1°F11.7°C 39.1°F3.9°C 59% 2.2 mph S3.5 kmh S 6.9 mph11.1 kmh 30.16 in1021.3 mb 0.00 in0.0 mm 0.00 in/hr0.0 mm/hr 0.00 in0.0 mm
06:55 PM 53.1°F11.7°C 39.6°F4.2°C 60% 3.1 mph S5.0 kmh S 7.6 mph12.2 kmh 30.16 in1021.3 mb 0.00 in0.0 mm 0.00 in/hr0.0 mm/hr 0.00 in0.0 mm
07:00 PM 53.4°F11.9°C 39.9°F4.4°C 60% 2.2 mph S3.5 kmh S 7.6 mph12.2 kmh 30.16 in1021.3 mb 0.00 in0.0 mm 0.00 in/hr0.0 mm/hr 0.00 in0.0 mm
07:05 PM 53.4°F11.9°C 39.9°F4.4°C 60% 2.2 mph N3.5 kmh N 7.6 mph12.2 kmh 30.17 in1021.7 mb 0.00 in0.0 mm 0.00 in/hr0.0 mm/hr 0.00 in0.0 mm
07:10 PM 53.1°F11.7°C 39.6°F4.2°C 60% 1.6 mph NNW2.6 kmh NNW 6.9 mph11.1 kmh 30.17 in1021.7 mb 0.00 in0.0 mm 0.00 in/hr0.0 mm/hr 0.00 in0.0 mm
07:15 PM 53.1°F11.7°C 40.0°F4.4°C 61% 1.6 mph SSW2.6 kmh SSW 6.9 mph11.1 kmh 30.17 in1021.7 mb 0.00 in0.0 mm 0.00 in/hr0.0 mm/hr 0.00 in0.0 mm
07:25 PM 53.2°F11.8°C 40.6°F4.8°C 62% 2.2 mph SSE3.5 kmh SSE 7.6 mph12.2 kmh 30.16 in1021.3 mb 0.00 in0.0 mm 0.00 in/hr0.0 mm/hr 0.00 in0.0 mm
07:30 PM 53.4°F11.9°C 40.7°F4.8°C 62% 0.7 mph SSE1.1 kmh SSE 8.3 mph13.4 kmh 30.16 in1021.3 mb 0.00 in0.0 mm 0.00 in/hr0.0 mm/hr 0.00 in0.0 mm
07:35 PM 53.4°F11.9°C 40.7°F4.8°C 62% 2.2 mph S3.5 kmh S 8.3 mph13.4 kmh 30.16 in1021.3 mb 0.00 in0.0 mm 0.00 in/hr0.0 mm/hr 0.00 in0.0 mm
07:40 PM 53.4°F11.9°C 40.7°F4.8°C 62% 3.1 mph S5.0 kmh S 7.6 mph12.2 kmh 30.16 in1021.3 mb 0.00 in0.0 mm 0.00 in/hr0.0 mm/hr 0.00 in0.0 mm
07:45 PM 53.4°F11.9°C 41.2°F5.1°C 63% 2.2 mph S3.5 kmh S 7.6 mph12.2 kmh 30.16 in1021.3 mb 0.00 in0.0 mm 0.00 in/hr0.0 mm/hr 0.00 in0.0 mm
07:50 PM 53.2°F11.8°C 41.0°F5.0°C 63% 2.2 mph SSE3.5 kmh SSE 7.6 mph12.2 kmh 30.16 in1021.3 mb 0.00 in0.0 mm 0.00 in/hr0.0 mm/hr 0.00 in0.0 mm
07:55 PM 53.1°F11.7°C 41.2°F5.1°C 64% 3.8 mph SE6.1 kmh SE 6.9 mph11.1 kmh 30.16 in1021.3 mb 0.00 in0.0 mm 0.00 in/hr0.0 mm/hr 0.00 in0.0 mm
08:00 PM 53.1°F11.7°C 41.6°F5.3°C 65% 0.7 mph SE1.1 kmh SE 5.4 mph8.7 kmh 30.16 in1021.3 mb 0.00 in0.0 mm 0.00 in/hr0.0 mm/hr 0.00 in0.0 mm
08:05 PM 53.1°F11.7°C 41.6°F5.3°C 65% 0.7 mph E1.1 kmh E 5.4 mph8.7 kmh 30.16 in1021.3 mb 0.00 in0.0 mm 0.00 in/hr0.0 mm/hr 0.00 in0.0 mm
08:10 PM 52.9°F11.6°C 41.8°F5.4°C 66% 3.1 mph NE5.0 kmh NE 6.0 mph9.7 kmh 30.16 in1021.3 mb 0.00 in0.0 mm 0.00 in/hr0.0 mm/hr 0.00 in0.0 mm
08:15 PM 52.9°F11.6°C 41.8°F5.4°C 66% 0.7 mph SSE1.1 kmh SSE 6.0 mph9.7 kmh 30.16 in1021.3 mb 0.00 in0.0 mm 0.00 in/hr0.0 mm/hr 0.00 in0.0 mm
08:20 PM 52.7°F11.5°C 41.7°F5.4°C 66% 0.7 mph SSE1.1 kmh SSE 6.0 mph9.7 kmh 30.16 in1021.3 mb 0.00 in0.0 mm 0.00 in/hr0.0 mm/hr 0.00 in0.0 mm
08:25 PM 52.5°F11.4°C 41.9°F5.5°C 67% 2.2 mph SE3.5 kmh SE 5.4 mph8.7 kmh 30.16 in1021.3 mb 0.00 in0.0 mm 0.00 in/hr0.0 mm/hr 0.00 in0.0 mm
08:30 PM 52.7°F11.5°C 42.4°F5.8°C 68% 2.2 mph S3.5 kmh S 9.8 mph15.8 kmh 30.15 in1021.0 mb 0.00 in0.0 mm 0.00 in/hr0.0 mm/hr 0.00 in0.0 mm
08:35 PM 52.5°F11.4°C 42.3°F5.7°C 68% 1.6 mph SE2.6 kmh SE 9.8 mph15.8 kmh 30.15 in1021.0 mb 0.00 in0.0 mm 0.00 in/hr0.0 mm/hr 0.00 in0.0 mm
08:40 PM 52.9°F11.6°C 43.0°F6.1°C 69% 1.6 mph SE2.6 kmh SE 6.9 mph11.1 kmh 30.16 in1021.3 mb 0.00 in0.0 mm 0.00 in/hr0.0 mm/hr 0.00 in0.0 mm
08:45 PM 52.9°F11.6°C 43.0°F6.1°C 69% 0.7 mph S1.1 kmh S 6.9 mph11.1 kmh 30.16 in1021.3 mb 0.00 in0.0 mm 0.00 in/hr0.0 mm/hr 0.00 in0.0 mm
08:50 PM 52.9°F11.6°C 43.0°F6.1°C 69% 1.6 mph SE2.6 kmh SE 4.5 mph7.2 kmh 30.16 in1021.3 mb 0.00 in0.0 mm 0.00 in/hr0.0 mm/hr 0.00 in0.0 mm
08:55 PM 52.9°F11.6°C 43.4°F6.3°C 70% 1.6 mph ENE2.6 kmh ENE 4.5 mph7.2 kmh 30.15 in1021.0 mb 0.00 in0.0 mm 0.00 in/hr0.0 mm/hr 0.00 in0.0 mm
09:01 PM 52.9°F11.6°C 43.4°F6.3°C 70% 1.6 mph ESE2.6 kmh ESE 6.0 mph9.7 kmh 30.15 in1021.0 mb 0.00 in0.0 mm 0.00 in/hr0.0 mm/hr 0.00 in0.0 mm
09:05 PM 52.9°F11.6°C 43.4°F6.3°C 70% 1.6 mph S2.6 kmh S 6.0 mph9.7 kmh 30.15 in1021.0 mb 0.00 in0.0 mm 0.00 in/hr0.0 mm/hr 0.00 in0.0 mm
09:10 PM 52.7°F11.5°C 43.2°F6.2°C 70% 0.7 mph S1.1 kmh S 6.0 mph9.7 kmh 30.15 in1021.0 mb 0.00 in0.0 mm 0.00 in/hr0.0 mm/hr 0.00 in0.0 mm
09:17 PM 52.7°F11.5°C 43.2°F6.2°C 70% 1.6 mph S2.6 kmh S 7.6 mph12.2 kmh 30.15 in1021.0 mb 0.00 in0.0 mm 0.00 in/hr0.0 mm/hr 0.00 in0.0 mm
09:20 PM 52.5°F11.4°C 43.0°F6.1°C 70% 2.2 mph SSE3.5 kmh SSE 7.6 mph12.2 kmh 30.14 in1020.7 mb 0.00 in0.0 mm 0.00 in/hr0.0 mm/hr 0.00 in0.0 mm
09:28 PM 52.5°F11.4°C 43.0°F6.1°C 70% 3.1 mph SE5.0 kmh SE 6.9 mph11.1 kmh 30.14 in1020.7 mb 0.00 in0.0 mm 0.00 in/hr0.0 mm/hr 0.00 in0.0 mm
09:30 PM 52.5°F11.4°C 43.0°F6.1°C 70% 0.7 mph E1.1 kmh E 6.9 mph11.1 kmh 30.15 in1021.0 mb 0.00 in0.0 mm 0.00 in/hr0.0 mm/hr 0.00 in0.0 mm
09:35 PM 52.9°F11.6°C 43.4°F6.3°C 70% 2.2 mph SSE3.5 kmh SSE 6.9 mph11.1 kmh 30.15 in1021.0 mb 0.00 in0.0 mm 0.00 in/hr0.0 mm/hr 0.00 in0.0 mm
09:41 PM 53.1°F11.7°C 43.2°F6.2°C 69% 1.6 mph W2.6 kmh W 7.6 mph12.2 kmh 30.15 in1021.0 mb 0.00 in0.0 mm 0.00 in/hr0.0 mm/hr 0.00 in0.0 mm
09:45 PM 53.4°F11.9°C 43.1°F6.2°C 68% 1.6 mph WSW2.6 kmh WSW 9.8 mph15.8 kmh 30.15 in1021.0 mb 0.00 in0.0 mm 0.00 in/hr0.0 mm/hr 0.00 in0.0 mm
09:50 PM 54.0°F12.2°C 43.3°F6.3°C 67% 4.5 mph SW7.2 kmh SW 9.8 mph15.8 kmh 30.15 in1021.0 mb 0.00 in0.0 mm 0.00 in/hr0.0 mm/hr 0.00 in0.0 mm
09:55 PM 54.0°F12.2°C 42.9°F6.1°C 66% 2.2 mph NW3.5 kmh NW 9.8 mph15.8 kmh 30.15 in1021.0 mb 0.00 in0.0 mm 0.00 in/hr0.0 mm/hr 0.00 in0.0 mm
10:00 PM 54.0°F12.2°C 42.9°F6.1°C 66% 3.1 mph W5.0 kmh W 8.3 mph13.4 kmh 30.15 in1021.0 mb 0.00 in0.0 mm 0.00 in/hr0.0 mm/hr 0.00 in0.0 mm
10:05 PM 54.0°F12.2°C 42.9°F6.1°C 66% 3.1 mph W5.0 kmh W 8.3 mph13.4 kmh 30.14 in1020.7 mb 0.00 in0.0 mm 0.00 in/hr0.0 mm/hr 0.00 in0.0 mm
10:10 PM 54.3°F12.4°C 43.2°F6.2°C 66% 1.6 mph W2.6 kmh W 6.0 mph9.7 kmh 30.15 in1021.0 mb 0.00 in0.0 mm 0.00 in/hr0.0 mm/hr 0.00 in0.0 mm
10:15 PM 54.1°F12.3°C 43.0°F6.1°C 66% 0.7 mph WNW1.1 kmh WNW 6.0 mph9.7 kmh 30.15 in1021.0 mb 0.00 in0.0 mm 0.00 in/hr0.0 mm/hr 0.00 in0.0 mm
10:20 PM 54.1°F12.3°C 42.6°F5.9°C 65% 4.5 mph NNW7.2 kmh NNW 8.3 mph13.4 kmh 30.15 in1021.0 mb 0.00 in0.0 mm 0.00 in/hr0.0 mm/hr 0.00 in0.0 mm
10:25 PM 68.2°F20.1°C 56.0°F13.3°C 65% 3.1 mph SSE5.0 kmh SSE 8.3 mph13.4 kmh 30.16 in1021.3 mb 0.00 in0.0 mm 0.00 in/hr0.0 mm/hr 0.00 in0.0 mm
10:30 PM 54.1°F12.3°C 42.6°F5.9°C 65% 1.6 mph SW2.6 kmh SW 9.2 mph14.8 kmh 30.16 in1021.3 mb 0.00 in0.0 mm 0.00 in/hr0.0 mm/hr 0.00 in0.0 mm
10:35 PM 54.1°F12.3°C 42.6°F5.9°C 65% 1.6 mph SW2.6 kmh SW 9.2 mph14.8 kmh 30.15 in1021.0 mb 0.00 in0.0 mm 0.00 in/hr0.0 mm/hr 0.00 in0.0 mm
10:40 PM 53.8°F12.1°C 42.7°F5.9°C 66% 0.7 mph S1.1 kmh S 6.9 mph11.1 kmh 30.15 in1021.0 mb 0.00 in0.0 mm 0.00 in/hr0.0 mm/hr 0.00 in0.0 mm
10:46 PM 53.6°F12.0°C 42.5°F5.8°C 66% 1.6 mph S2.6 kmh S 6.0 mph9.7 kmh 30.15 in1021.0 mb 0.00 in0.0 mm 0.00 in/hr0.0 mm/hr 0.00 in0.0 mm
10:52 PM 53.6°F12.0°C 42.9°F6.1°C 67% 3.1 mph S5.0 kmh S 6.9 mph11.1 kmh 30.15 in1021.0 mb 0.00 in0.0 mm 0.00 in/hr0.0 mm/hr 0.00 in0.0 mm
10:55 PM 53.4°F11.9°C 42.7°F5.9°C 67% 3.1 mph S5.0 kmh S 7.6 mph12.2 kmh 30.14 in1020.7 mb 0.00 in0.0 mm 0.00 in/hr0.0 mm/hr 0.00 in0.0 mm
11:01 PM 53.2°F11.8°C 43.0°F6.1°C 68% 1.6 mph SSE2.6 kmh SSE 7.6 mph12.2 kmh 30.14 in1020.7 mb 0.00 in0.0 mm 0.00 in/hr0.0 mm/hr 0.00 in0.0 mm
11:05 PM 53.2°F11.8°C 43.0°F6.1°C 68% 1.6 mph S2.6 kmh S 6.0 mph9.7 kmh 30.14 in1020.7 mb 0.00 in0.0 mm 0.00 in/hr0.0 mm/hr 0.00 in0.0 mm
11:11 PM 56.5°F13.6°C 46.4°F8.0°C 69% 1.6 mph S2.6 kmh S 6.9 mph11.1 kmh 30.14 in1020.7 mb 0.00 in0.0 mm 0.00 in/hr0.0 mm/hr 0.00 in0.0 mm
11:15 PM 52.3°F11.3°C 42.9°F6.1°C 70% 3.1 mph SSE5.0 kmh SSE 6.9 mph11.1 kmh 30.14 in1020.7 mb 0.00 in0.0 mm 0.00 in/hr0.0 mm/hr 0.00 in0.0 mm
11:22 PM 52.3°F11.3°C 42.9°F6.1°C 70% 3.1 mph SSE5.0 kmh SSE 6.0 mph9.7 kmh 30.13 in1020.3 mb 0.00 in0.0 mm 0.00 in/hr0.0 mm/hr 0.00 in0.0 mm
11:25 PM 52.5°F11.4°C 43.0°F6.1°C 70% 1.6 mph SSE2.6 kmh SSE 6.9 mph11.1 kmh 30.12 in1020.0 mb 0.00 in0.0 mm 0.00 in/hr0.0 mm/hr 0.00 in0.0 mm
11:31 PM 52.9°F11.6°C 43.0°F6.1°C 69% 1.6 mph SE2.6 kmh SE 7.6 mph12.2 kmh 30.12 in1020.0 mb 0.00 in0.0 mm 0.00 in/hr0.0 mm/hr 0.00 in0.0 mm
11:35 PM 53.1°F11.7°C 42.8°F6.0°C 68% 2.2 mph SSE3.5 kmh SSE 7.6 mph12.2 kmh 30.12 in1020.0 mb 0.00 in0.0 mm 0.00 in/hr0.0 mm/hr 0.00 in0.0 mm
11:41 PM 53.2°F11.8°C 43.0°F6.1°C 68% 3.8 mph S6.1 kmh S 7.6 mph12.2 kmh 30.13 in1020.3 mb 0.00 in0.0 mm 0.00 in/hr0.0 mm/hr 0.00 in0.0 mm
11:46 PM 53.4°F11.9°C 43.1°F6.2°C 68% 0.7 mph S1.1 kmh S 9.2 mph14.8 kmh 30.13 in1020.3 mb 0.00 in0.0 mm 0.00 in/hr0.0 mm/hr 0.00 in0.0 mm
11:55 PM 53.4°F11.9°C 43.1°F6.2°C 68% 2.2 mph SSW3.5 kmh SSW 7.6 mph12.2 kmh 30.13 in1020.3 mb 0.00 in0.0 mm 0.00 in/hr0.0 mm/hr 0.00 in0.0 mm